createdAt,value
2022-09-30T00:01:27.575Z,1234.03
2022-09-30T00:03:55.096Z,1233.78
2022-09-30T00:06:22.286Z,1233.83
2022-09-30T00:08:49.570Z,1231.70
2022-09-30T00:11:28.631Z,1230.53
2022-09-30T00:13:57.554Z,1231.72
2022-09-30T00:16:26.578Z,1233.07
2022-09-30T00:18:56.165Z,1225.60
2022-09-30T00:21:23.539Z,1228.03
2022-09-30T00:23:50.920Z,1231.10
2022-09-30T00:26:21.479Z,1232.70
2022-09-30T00:28:53.981Z,1232.68
2022-09-30T00:31:21.978Z,1230.80
2022-09-30T00:34:07.903Z,1231.38
2022-09-30T00:36:37.529Z,1234.67
2022-09-30T00:39:05.437Z,1233.32
2022-09-30T00:41:32.926Z,1228.43
2022-09-30T00:44:00.262Z,1232.10
2022-09-30T00:46:42.272Z,1235.85
2022-09-30T00:49:21.470Z,1233.55
2022-09-30T00:51:51.266Z,1234.13
2022-09-30T00:54:28.793Z,1233.20
2022-09-30T00:57:03.258Z,1230.90
2022-09-30T00:59:36.957Z,1233.57
2022-09-30T01:02:04.740Z,1230.57
2022-09-30T01:04:34.447Z,1232.50
2022-09-30T01:07:07.009Z,1233.57
2022-09-30T01:09:35.523Z,1234.03
2022-09-30T01:12:08.421Z,1236.27
2022-09-30T01:14:35.817Z,1229.13
2022-09-30T01:17:20.731Z,1230.40
2022-09-30T01:19:47.902Z,1233.75
2022-09-30T01:22:17.714Z,1231.55
2022-09-30T01:25:48.794Z,1231.82
2022-09-30T01:28:28.007Z,1232.43
2022-09-30T01:31:14.192Z,1235.78
2022-09-30T01:33:44.461Z,1229.03
2022-09-30T01:36:14.704Z,1234.05
2022-09-30T01:38:48.531Z,1232.20
2022-09-30T01:41:17.061Z,1229.50
2022-09-30T01:43:57.355Z,1233.10
2022-09-30T01:46:24.516Z,1232.93
2022-09-30T01:49:25.631Z,1234.38
2022-09-30T01:51:55.603Z,1237.00
2022-09-30T01:54:25.607Z,1238.30
2022-09-30T01:56:55.985Z,1237.70
2022-09-30T01:59:29.548Z,1236.45
2022-09-30T02:01:59.141Z,1235.13
2022-09-30T02:04:30.286Z,1233.57
2022-09-30T02:07:02.498Z,1240.47
2022-09-30T02:09:43.905Z,1237.53
2022-09-30T02:12:15.383Z,1233.53
2022-09-30T02:14:44.807Z,1235.65
2022-09-30T02:17:43.180Z,1232.35
2022-09-30T02:20:18.531Z,1237.90
2022-09-30T02:23:02.134Z,1232.03
2022-09-30T02:25:34.984Z,1237.28
2022-09-30T02:28:07.381Z,1232.25
2022-09-30T02:30:36.106Z,1234.80
2022-09-30T02:33:12.823Z,1236.00
2022-09-30T02:35:46.681Z,1233.22
2022-09-30T02:38:24.599Z,1231.13
2022-09-30T02:41:06.396Z,1233.93
2022-09-30T02:43:33.707Z,1233.53
2022-09-30T02:46:16.137Z,1232.88
2022-09-30T02:48:49.294Z,1229.35
2022-09-30T02:51:22.288Z,1232.30
2022-09-30T02:54:34.389Z,1233.80
2022-09-30T02:57:01.870Z,1233.45
2022-09-30T02:59:29.180Z,1233.37
2022-09-30T03:01:56.409Z,1235.47
2022-09-30T03:04:25.174Z,1233.60
2022-09-30T03:06:52.323Z,1231.55
2022-09-30T03:09:19.652Z,1237.03
2022-09-30T03:11:47.663Z,1234.65
2022-09-30T03:14:23.972Z,1233.57
2022-09-30T03:17:18.568Z,1232.22
2022-09-30T03:20:07.602Z,1228.28
2022-09-30T03:23:07.708Z,1231.80
2022-09-30T03:25:40.071Z,1233.78
2022-09-30T03:28:30.379Z,1232.47
2022-09-30T03:31:00.506Z,1232.70
2022-09-30T03:33:46.083Z,1235.35
2022-09-30T03:36:24.799Z,1228.97
2022-09-30T03:38:54.954Z,1230.32
2022-09-30T03:41:32.518Z,1230.03
2022-09-30T03:44:25.027Z,1224.70
2022-09-30T03:46:55.052Z,1224.05
2022-09-30T03:49:30.282Z,1226.60
2022-09-30T03:51:59.381Z,1230.38
2022-09-30T03:54:26.755Z,1229.30
2022-09-30T03:56:54.190Z,1225.95
2022-09-30T03:59:27.901Z,1225.93
2022-09-30T04:01:57.131Z,1229.93
2022-09-30T04:04:24.355Z,1222.17
2022-09-30T04:06:51.469Z,1218.57
2022-09-30T04:09:18.741Z,1212.35
2022-09-30T04:11:45.886Z,1229.03
2022-09-30T04:14:13.030Z,1223.80
2022-09-30T04:16:40.142Z,1227.53
2022-09-30T04:19:08.382Z,1226.70
2022-09-30T04:21:36.541Z,1228.57
2022-09-30T04:24:03.918Z,1225.10
2022-09-30T04:26:31.119Z,1224.77
2022-09-30T04:28:58.730Z,1221.03
2022-09-30T04:31:26.100Z,1229.28
2022-09-30T04:33:53.814Z,1228.63
2022-09-30T04:36:20.973Z,1228.63
2022-09-30T04:38:48.141Z,1229.37
2022-09-30T04:41:16.217Z,1223.07
2022-09-30T04:43:46.907Z,1222.43
2022-09-30T04:46:16.035Z,1222.13
2022-09-30T04:48:45.626Z,1222.47
2022-09-30T04:51:13.598Z,1225.38
2022-09-30T04:53:40.773Z,1221.28
2022-09-30T04:56:08.137Z,1220.78
2022-09-30T04:58:37.319Z,1221.80
2022-09-30T05:01:07.023Z,1224.22
2022-09-30T05:03:34.593Z,1225.60
2022-09-30T05:06:01.826Z,1222.82
2022-09-30T05:08:29.994Z,1228.55
2022-09-30T05:10:57.994Z,1234.75
2022-09-30T05:13:34.293Z,1229.78
2022-09-30T05:16:02.167Z,1228.45
2022-09-30T05:18:29.678Z,1234.83
2022-09-30T05:20:57.613Z,1226.82
2022-09-30T05:23:25.304Z,1222.23
2022-09-30T05:25:53.812Z,1222.68
2022-09-30T05:28:21.279Z,1231.10
2022-09-30T05:30:49.881Z,1232.15
2022-09-30T05:33:17.134Z,1227.47
2022-09-30T05:35:44.570Z,1228.70
2022-09-30T05:38:13.167Z,1220.80
2022-09-30T05:40:40.931Z,1227.80
2022-09-30T05:43:08.050Z,1227.30
2022-09-30T05:45:35.274Z,1222.00
2022-09-30T05:48:02.793Z,1217.03
2022-09-30T05:50:31.163Z,1221.22
2022-09-30T05:52:58.247Z,1223.43
2022-09-30T05:55:25.529Z,1228.47
2022-09-30T05:57:53.229Z,1227.32
2022-09-30T06:00:20.471Z,1230.20
2022-09-30T06:02:51.690Z,1226.70
2022-09-30T06:05:19.227Z,1225.82
2022-09-30T06:07:46.439Z,1221.78
2022-09-30T06:10:13.686Z,1223.63
2022-09-30T06:12:41.000Z,1223.07
2022-09-30T06:15:08.547Z,1219.00
2022-09-30T06:17:35.819Z,1218.30
2022-09-30T06:20:05.515Z,1221.00
2022-09-30T06:22:35.861Z,1216.37
2022-09-30T06:25:06.682Z,1213.82
2022-09-30T06:27:34.490Z,1218.35
2022-09-30T06:30:01.646Z,1220.47
2022-09-30T06:32:30.153Z,1217.63
2022-09-30T06:34:57.520Z,1223.65
2022-09-30T06:37:24.721Z,1220.87
2022-09-30T06:39:52.166Z,1223.10
2022-09-30T06:42:19.485Z,1223.05
2022-09-30T06:44:52.900Z,1225.18
2022-09-30T06:47:25.106Z,1219.80
2022-09-30T06:49:54.483Z,1218.53
2022-09-30T06:52:21.742Z,1222.35
2022-09-30T06:54:51.085Z,1227.33
2022-09-30T06:57:22.523Z,1223.63
2022-09-30T06:59:50.628Z,1221.22
2022-09-30T07:02:18.105Z,1228.57
2022-09-30T07:04:45.312Z,1223.78
2022-09-30T07:07:12.547Z,1231.03
2022-09-30T07:09:39.790Z,1231.53
2022-09-30T07:12:07.374Z,1229.30
2022-09-30T07:14:35.811Z,1223.18
2022-09-30T07:17:04.488Z,1229.65
2022-09-30T07:19:34.123Z,1226.57
2022-09-30T07:22:21.406Z,1226.03
2022-09-30T07:24:48.578Z,1221.32
2022-09-30T07:27:15.857Z,1231.50
2022-09-30T07:30:07.535Z,1224.28
2022-09-30T07:32:31.934Z,1223.00
2022-09-30T07:34:59.107Z,1218.97
2022-09-30T07:37:26.727Z,1225.55
2022-09-30T07:39:54.327Z,1232.47
2022-09-30T07:42:22.995Z,1218.03
2022-09-30T07:44:51.929Z,1224.40
2022-09-30T07:47:19.955Z,1222.80
2022-09-30T07:49:47.448Z,1220.25
2022-09-30T07:52:14.943Z,1219.45
2022-09-30T07:54:46.773Z,1221.05
2022-09-30T07:57:16.893Z,1217.97
2022-09-30T07:59:44.177Z,1221.90
2022-09-30T08:02:17.230Z,1222.30
2022-09-30T08:04:45.077Z,1237.75
2022-09-30T08:07:14.276Z,1229.15
2022-09-30T08:09:41.638Z,1261.32
2022-09-30T08:12:09.518Z,1267.95
2022-09-30T08:14:36.679Z,1247.63
2022-09-30T08:17:03.836Z,1245.70
2022-09-30T08:19:32.895Z,1289.83
2022-09-30T08:22:00.272Z,1252.80
2022-09-30T08:24:27.897Z,1252.88
2022-09-30T08:26:55.371Z,1252.60
2022-09-30T08:29:43.009Z,1255.30
2022-09-30T08:32:09.807Z,1254.05
2022-09-30T08:34:37.007Z,1251.10
2022-09-30T08:37:09.055Z,1253.70
2022-09-30T08:39:39.839Z,1255.35
2022-09-30T08:42:41.607Z,1244.32
2022-09-30T08:45:35.937Z,1248.93
2022-09-30T08:51:24.918Z,1253.72
2022-09-30T08:53:53.118Z,1253.68
2022-09-30T08:56:25.309Z,1256.35
2022-09-30T08:58:55.018Z,1252.87
2022-09-30T09:01:33.037Z,1255.57
2022-09-30T09:04:01.083Z,1253.20
2022-09-30T09:06:28.213Z,1251.90
2022-09-30T09:09:01.431Z,1242.90
2022-09-30T09:11:31.610Z,1256.55
2022-09-30T09:13:59.676Z,1258.40
2022-09-30T09:17:06.639Z,1258.32
2022-09-30T09:19:38.573Z,1255.80
2022-09-30T09:22:05.734Z,1261.43
2022-09-30T09:24:47.581Z,1255.65
2022-09-30T09:27:20.393Z,1258.00
2022-09-30T09:30:09.455Z,1256.22
2022-09-30T09:32:36.778Z,1260.10
2022-09-30T09:35:41.700Z,1254.45
2022-09-30T09:38:35.664Z,1254.70
2022-09-30T09:41:13.392Z,1250.55
2022-09-30T09:43:48.311Z,1254.17
2022-09-30T09:46:24.770Z,1255.82
2022-09-30T09:49:20.577Z,1253.63
2022-09-30T09:51:51.121Z,1254.50
2022-09-30T09:54:19.554Z,1258.50
2022-09-30T09:56:46.771Z,1259.55
2022-09-30T09:59:20.171Z,1258.60
2022-09-30T10:01:50.249Z,1252.97
2022-09-30T10:04:27.407Z,1249.10
2022-09-30T10:07:00.368Z,1246.60
2022-09-30T10:09:30.715Z,1239.63
2022-09-30T10:12:22.007Z,1259.40
2022-09-30T10:14:57.649Z,1252.90
2022-09-30T10:17:35.703Z,1243.50
2022-09-30T10:20:07.294Z,1241.10
2022-09-30T10:22:36.505Z,1240.73
2022-09-30T10:25:29.490Z,1237.18
2022-09-30T10:28:04.565Z,1238.57
2022-09-30T10:30:34.879Z,1246.70
2022-09-30T10:33:04.213Z,1248.18
2022-09-30T10:35:31.624Z,1249.77
2022-09-30T10:38:00.324Z,1256.78
2022-09-30T10:40:30.140Z,1251.25
2022-09-30T10:42:57.729Z,1250.25
2022-09-30T10:45:29.563Z,1248.88
2022-09-30T10:47:57.590Z,1245.70
2022-09-30T10:50:27.532Z,1244.60
2022-09-30T10:53:04.477Z,1238.15
2022-09-30T10:55:42.008Z,1241.43
2022-09-30T10:58:42.329Z,1238.57
2022-09-30T11:01:09.660Z,1243.67
2022-09-30T11:03:46.017Z,1244.05
2022-09-30T11:06:15.415Z,1244.82
2022-09-30T11:08:49.744Z,1250.53
2022-09-30T11:11:20.497Z,1252.72
2022-09-30T11:13:47.724Z,1242.63
2022-09-30T11:16:46.972Z,1244.63
2022-09-30T11:19:14.602Z,1246.47
2022-09-30T11:21:53.270Z,1239.85
2022-09-30T11:24:33.074Z,1241.17
2022-09-30T11:27:03.319Z,1245.13
2022-09-30T11:29:33.258Z,1254.40
2022-09-30T11:32:19.107Z,1258.18
2022-09-30T11:35:22.010Z,1268.88
2022-09-30T11:38:05.938Z,1251.97
2022-09-30T11:40:33.098Z,1252.30
2022-09-30T11:43:00.963Z,1254.63
2022-09-30T11:46:02.175Z,1252.70
2022-09-30T11:48:42.670Z,1252.13
2022-09-30T11:51:24.435Z,1252.07
2022-09-30T11:54:11.084Z,1251.95
2022-09-30T11:56:41.378Z,1246.78
2022-09-30T11:59:16.755Z,1248.00
2022-09-30T12:01:46.166Z,1248.28
2022-09-30T12:04:22.238Z,1252.78
2022-09-30T12:07:05.008Z,1246.70
2022-09-30T12:09:56.122Z,1252.87
2022-09-30T12:12:23.447Z,1248.75
2022-09-30T12:14:55.238Z,1250.03
2022-09-30T12:17:42.423Z,1272.18
2022-09-30T12:20:16.780Z,1243.90
2022-09-30T12:22:46.898Z,1247.20
2022-09-30T12:25:19.592Z,1263.97
2022-09-30T12:27:50.432Z,1255.32
2022-09-30T12:30:22.931Z,1266.05
2022-09-30T12:32:59.520Z,1260.37
2022-09-30T12:35:45.920Z,1259.97
2022-09-30T12:38:28.555Z,1257.05
2022-09-30T12:40:56.038Z,1258.20
2022-09-30T12:44:04.592Z,1268.10
2022-09-30T12:46:50.523Z,1251.18
2022-09-30T12:49:21.445Z,1252.95
2022-09-30T12:51:57.119Z,1249.60
2022-09-30T12:54:36.879Z,1246.22
2022-09-30T12:57:08.915Z,1264.53
2022-09-30T12:59:50.247Z,1258.77
2022-09-30T13:02:41.656Z,1260.60
2022-09-30T13:05:27.434Z,1258.20
2022-09-30T13:08:03.991Z,1258.35
2022-09-30T13:10:31.158Z,1265.18
2022-09-30T13:13:17.173Z,1258.18
2022-09-30T13:15:45.533Z,1262.65
2022-09-30T13:18:26.733Z,1259.88
2022-09-30T13:21:06.555Z,1259.15
2022-09-30T13:23:52.387Z,1254.88
2022-09-30T13:26:38.531Z,1253.15
2022-09-30T13:29:16.092Z,1253.97
2022-09-30T13:31:46.302Z,1259.85
2022-09-30T13:34:23.248Z,1242.15
2022-09-30T13:36:53.331Z,1252.93
2022-09-30T13:39:26.571Z,1252.38
2022-09-30T13:42:02.795Z,1254.97
2022-09-30T13:44:36.552Z,1263.32
2022-09-30T13:47:18.486Z,1325.60
2022-09-30T13:50:12.529Z,1243.25
2022-09-30T13:52:41.758Z,1244.32
2022-09-30T13:55:14.548Z,1237.13
2022-09-30T13:57:45.272Z,1243.83
2022-09-30T14:00:20.096Z,1262.00
2022-09-30T14:03:03.607Z,1251.38
2022-09-30T14:06:08.335Z,1250.50
2022-09-30T14:09:04.868Z,1278.43
2022-09-30T14:11:46.582Z,1264.47
2022-09-30T14:14:44.845Z,1261.25
2022-09-30T14:17:15.083Z,1241.50
2022-09-30T14:20:20.090Z,1252.95
2022-09-30T14:23:13.137Z,1277.00
2022-09-30T14:26:20.393Z,1264.73
2022-09-30T14:28:57.116Z,1335.47
2022-09-30T14:31:25.538Z,1156.95
2022-09-30T14:33:53.002Z,1267.78
2022-09-30T14:36:21.872Z,1273.78
2022-09-30T14:38:54.219Z,1257.97
2022-09-30T14:41:23.084Z,1254.30
2022-09-30T14:43:56.439Z,1261.75
2022-09-30T14:46:32.964Z,1256.80
2022-09-30T14:49:06.669Z,1257.82
2022-09-30T14:51:43.170Z,1256.45
2022-09-30T14:54:18.148Z,1257.30
2022-09-30T14:56:45.377Z,1256.82
2022-09-30T14:59:31.164Z,1253.55
2022-09-30T15:02:00.633Z,1257.03
2022-09-30T15:04:31.697Z,1253.65
2022-09-30T15:07:03.318Z,1260.33
2022-09-30T15:09:37.759Z,1254.10
2022-09-30T15:12:11.050Z,1262.38
2022-09-30T15:14:47.219Z,1251.43
2022-09-30T15:17:27.133Z,1254.15
2022-09-30T15:19:55.880Z,1259.97
2022-09-30T15:22:24.579Z,1264.70
2022-09-30T15:24:52.258Z,1257.78
2022-09-30T15:27:25.888Z,1236.93
2022-09-30T15:30:00.565Z,1249.43
2022-09-30T15:32:29.699Z,1248.55
2022-09-30T15:34:58.477Z,1252.80
2022-09-30T15:37:29.776Z,1250.57
2022-09-30T15:40:15.599Z,1251.13
2022-09-30T15:42:55.553Z,1249.05
2022-09-30T15:45:34.628Z,1254.28
2022-09-30T15:48:25.703Z,1252.35
2022-09-30T15:50:59.295Z,1243.87
2022-09-30T15:53:30.924Z,1257.32
2022-09-30T15:56:25.870Z,1252.57
2022-09-30T15:59:00.402Z,1249.93
2022-09-30T16:01:36.827Z,1250.68
2022-09-30T16:04:15.746Z,1242.80
2022-09-30T16:06:51.671Z,1247.13
2022-09-30T16:09:18.873Z,1249.68
2022-09-30T16:12:25.055Z,1250.00
2022-09-30T16:15:14.311Z,1253.55
2022-09-30T16:17:47.067Z,1245.93
2022-09-30T16:20:14.639Z,1252.43
2022-09-30T16:22:41.763Z,1251.35
2022-09-30T16:25:18.354Z,1250.63
2022-09-30T16:27:45.978Z,1242.97
2022-09-30T16:30:18.830Z,1240.70
2022-09-30T16:32:49.378Z,1245.77
2022-09-30T16:35:22.525Z,1240.32
2022-09-30T16:37:50.939Z,1245.90
2022-09-30T16:40:23.302Z,1237.78
2022-09-30T16:42:50.711Z,1239.50
2022-09-30T16:45:18.390Z,1242.10
2022-09-30T16:47:45.998Z,1246.78
2022-09-30T16:50:28.238Z,1243.63
2022-09-30T16:52:55.729Z,1247.60
2022-09-30T16:55:23.744Z,1239.85
2022-09-30T16:57:50.986Z,1247.20
2022-09-30T17:00:18.275Z,1246.28
2022-09-30T17:02:47.129Z,1252.38
2022-09-30T17:05:16.005Z,1252.53
2022-09-30T17:07:44.306Z,1252.55
2022-09-30T17:10:20.028Z,1253.75
2022-09-30T17:12:47.307Z,1246.63
2022-09-30T17:15:14.810Z,1246.25
2022-09-30T17:17:41.914Z,1246.35
2022-09-30T17:20:09.397Z,1243.53
2022-09-30T17:22:36.626Z,1248.18
2022-09-30T17:25:03.984Z,1247.35
2022-09-30T17:27:31.169Z,1244.10
2022-09-30T17:29:58.360Z,1242.88
2022-09-30T17:32:25.527Z,1249.50
2022-09-30T17:34:52.683Z,1246.35
2022-09-30T17:37:20.033Z,1252.43
2022-09-30T17:39:46.861Z,1257.57
2022-09-30T17:42:33.727Z,1257.85
2022-09-30T17:45:01.331Z,1247.17
2022-09-30T17:47:28.459Z,1249.22
2022-09-30T17:49:55.804Z,1248.82
2022-09-30T17:52:25.054Z,1247.10
2022-09-30T17:54:52.949Z,1243.25
2022-09-30T17:57:20.985Z,1246.28
2022-09-30T17:59:48.177Z,1248.10
2022-09-30T18:02:17.450Z,1237.23
2022-09-30T18:04:45.161Z,1235.22
2022-09-30T18:07:13.631Z,1245.85
2022-09-30T18:09:40.854Z,1241.45
2022-09-30T18:12:08.050Z,1243.85
2022-09-30T18:14:35.892Z,1236.45
2022-09-30T18:17:04.095Z,1236.90
2022-09-30T18:19:31.492Z,1233.97
2022-09-30T18:21:58.585Z,1248.13
2022-09-30T18:24:45.059Z,1239.20
2022-09-30T18:27:12.255Z,1239.80
2022-09-30T18:29:40.302Z,1237.93
2022-09-30T18:32:07.606Z,1238.15
2022-09-30T18:34:35.175Z,1237.05
2022-09-30T18:37:06.575Z,1241.18
2022-09-30T18:39:39.884Z,1237.63
2022-09-30T18:42:07.111Z,1242.43
2022-09-30T18:44:37.429Z,1238.95
2022-09-30T18:47:05.257Z,1242.78
2022-09-30T18:49:32.497Z,1241.67
2022-09-30T18:51:59.713Z,1244.40
2022-09-30T18:54:26.866Z,1241.30
2022-09-30T18:56:53.979Z,1237.22
2022-09-30T18:59:23.895Z,1238.53
2022-09-30T19:01:51.573Z,1236.13
2022-09-30T19:04:18.738Z,1233.47
2022-09-30T19:06:47.533Z,1242.10
2022-09-30T19:09:16.361Z,1240.35
2022-09-30T19:11:44.723Z,1235.05
2022-09-30T19:14:12.654Z,1239.32
2022-09-30T19:16:40.269Z,1236.13
2022-09-30T19:19:10.269Z,1237.00
2022-09-30T19:21:38.579Z,1234.40
2022-09-30T19:24:06.784Z,1240.50
2022-09-30T19:26:36.156Z,1238.05
2022-09-30T19:29:03.862Z,1244.65
2022-09-30T19:31:32.548Z,1243.37
2022-09-30T19:34:01.489Z,1238.00
2022-09-30T19:36:35.759Z,1238.90
2022-09-30T19:39:12.121Z,1236.37
2022-09-30T19:41:40.053Z,1237.38
2022-09-30T19:44:07.250Z,1234.83
2022-09-30T19:46:34.384Z,1239.13
2022-09-30T19:49:02.018Z,1240.40
2022-09-30T19:51:30.586Z,1233.93
2022-09-30T19:54:06.052Z,1234.32
2022-09-30T19:56:35.943Z,1240.05
2022-09-30T19:59:03.467Z,1238.97
2022-09-30T20:01:31.354Z,1239.60
2022-09-30T20:04:04.857Z,1238.33
2022-09-30T20:06:33.323Z,1247.03
2022-09-30T20:09:02.213Z,1246.55
2022-09-30T20:11:33.497Z,1245.18
2022-09-30T20:14:20.270Z,1246.70
2022-09-30T20:16:48.402Z,1241.43
2022-09-30T20:19:16.023Z,1245.57
2022-09-30T20:21:43.589Z,1240.95
2022-09-30T20:24:13.010Z,1236.55
2022-09-30T20:26:40.281Z,1238.82
2022-09-30T20:29:08.678Z,1237.07
2022-09-30T20:31:36.739Z,1237.53
2022-09-30T20:34:04.671Z,1234.22
2022-09-30T20:36:32.364Z,1236.32
2022-09-30T20:39:02.550Z,1234.03
2022-09-30T20:41:35.028Z,1233.40
2022-09-30T20:44:03.620Z,1234.82
2022-09-30T20:46:34.274Z,1235.43
2022-09-30T20:49:02.330Z,1232.35
2022-09-30T20:51:31.078Z,1232.53
2022-09-30T20:53:59.527Z,1231.20
2022-09-30T20:56:35.828Z,1235.03
2022-09-30T20:59:11.924Z,1235.07
2022-09-30T21:01:39.243Z,1231.35
2022-09-30T21:04:06.646Z,1230.28
2022-09-30T21:06:34.888Z,1234.28
2022-09-30T21:09:03.211Z,1229.25
2022-09-30T21:11:30.792Z,1229.25
2022-09-30T21:13:58.228Z,1228.38
2022-09-30T21:16:25.853Z,1230.57
2022-09-30T21:18:53.922Z,1231.23
2022-09-30T21:21:24.595Z,1233.00
2022-09-30T21:23:55.579Z,1232.30
2022-09-30T21:26:23.062Z,1233.17
2022-09-30T21:28:50.930Z,1232.32
2022-09-30T21:31:27.444Z,1235.43
2022-09-30T21:33:56.421Z,1233.93
2022-09-30T21:36:24.163Z,1234.05
2022-09-30T21:38:51.963Z,1233.35
2022-09-30T21:41:20.504Z,1231.83
2022-09-30T21:43:47.945Z,1233.95
2022-09-30T21:46:16.387Z,1233.35
2022-09-30T21:48:43.726Z,1231.47
2022-09-30T21:51:11.453Z,1231.28
2022-09-30T21:53:38.670Z,1230.40
2022-09-30T21:56:05.990Z,1232.63
2022-09-30T21:58:33.554Z,1231.80
2022-09-30T22:01:03.482Z,1236.63
2022-09-30T22:03:35.905Z,1231.78
2022-09-30T22:06:05.894Z,1234.13
2022-09-30T22:08:35.397Z,1228.18
2022-09-30T22:11:06.883Z,1230.07
2022-09-30T22:13:34.304Z,1228.32
2022-09-30T22:16:05.513Z,1231.55
2022-09-30T22:19:12.543Z,1234.95
2022-09-30T22:21:39.686Z,1236.97
2022-09-30T22:24:09.048Z,1232.73
2022-09-30T22:26:37.131Z,1231.28
2022-09-30T22:29:06.119Z,1231.70
2022-09-30T22:31:34.093Z,1232.55
2022-09-30T22:34:22.692Z,1232.55
2022-09-30T22:37:08.499Z,1238.93
2022-09-30T22:39:35.767Z,1235.82
2022-09-30T22:42:03.455Z,1234.20
2022-09-30T22:44:34.121Z,1233.95
2022-09-30T22:47:01.247Z,1237.93
2022-09-30T22:49:30.550Z,1233.90
2022-09-30T22:51:57.847Z,1236.32
2022-09-30T22:54:26.177Z,1231.82
2022-09-30T22:56:54.834Z,1237.82
2022-09-30T22:59:23.296Z,1234.45
2022-09-30T23:01:50.483Z,1235.28
2022-09-30T23:04:17.915Z,1235.38
2022-09-30T23:06:50.631Z,1237.78
2022-09-30T23:09:18.190Z,1237.25
2022-09-30T23:11:46.234Z,1235.57
2022-09-30T23:14:14.764Z,1237.28
2022-09-30T23:16:42.729Z,1239.35
2022-09-30T23:19:10.235Z,1233.63
2022-09-30T23:21:37.631Z,1233.78
2022-09-30T23:24:05.278Z,1239.85
2022-09-30T23:26:32.456Z,1234.07
2022-09-30T23:29:00.646Z,1236.22
2022-09-30T23:31:28.141Z,1232.55
2022-09-30T23:34:01.223Z,1235.70
2022-09-30T23:36:29.818Z,1235.70
2022-09-30T23:39:02.661Z,1231.70
2022-09-30T23:41:31.393Z,1235.57
2022-09-30T23:43:59.165Z,1236.22
2022-09-30T23:46:26.534Z,1239.35
2022-09-30T23:48:53.937Z,1234.80
2022-09-30T23:51:21.240Z,1241.90
2022-09-30T23:53:48.430Z,1236.47
2022-09-30T23:56:17.232Z,1235.35
2022-09-30T23:58:45.018Z,1238.47
